Portada
METAR-TAF:

METAR-TAF

Aeroports :

Al-Kuwait, Kuwait

latitud: 29-13N, longitud: 047-59E, altitud: 55 m

Observació

L'informe es va fer fa 13 minuts, a les 10:00 UTC
Vent 5 kt del Oest/Sud-Oest
Temperatura 44°C
Humitat 13%
Pressió 1006 hPa
Visibilitat: 6000 m

METAR: OKBK 151000Z 24005KT 6000 NSC 44/10 Q1006 NOSIG

Hora: 13:13 (10:13 UTC)

Pronòstic

L'informe es va fer fa 5 hores i 28 minuts, a les 04:45 UTC
Pronòstic vàlid del 15 a les 06 UTC al 16 a les 12 UTC
Vent 3 kt amb direcció variable
Visibilitat: 7000 m
Temporalment
l' 15 a les 06 UTC al 15 a les 18 UTC
Vent 10 kt del Sud
Visibilitat: 3000 m
calitja

TAF: OKBK 150445Z 1506/1612 VRB03KT 7000 NSC TEMPO 1506/1518 17010KT 3000 HZ

Observacions i pronòstics meteorològics de més de 4000 aeroports (METAR i TAF).

Les estacions disponibles són els punts grocs i vermells al mapa.

Posi el ratolí al punt desitjat per veure el nom de l'estació.

Feu clic per veure les observacions i els pronòstics meteorològics.

Per canviar el mapa: feu clic els botons verds amb una creu de color negre per apropar; al botó verd amb un guió per allunyar la imatge; o en les fletxes verdes per a mapes adjacents.


METAR-TAF: